createdAt,value
2018-02-21T00:00:41.423Z,1017.15
2018-02-21T00:01:41.397Z,1017.15
2018-02-21T00:02:41.384Z,1017.18
2018-02-21T00:03:41.349Z,1017.26
2018-02-21T00:04:41.332Z,1017.25
2018-02-21T00:05:41.302Z,1017.30
2018-02-21T00:06:41.281Z,1017.29
2018-02-21T00:07:41.262Z,1017.25
2018-02-21T00:08:41.238Z,1017.22
2018-02-21T00:09:41.209Z,1017.20
2018-02-21T00:10:41.190Z,1017.15
2018-02-21T00:11:41.167Z,1017.15
2018-02-21T00:12:41.148Z,1017.07
2018-02-21T00:13:41.116Z,1017.09
2018-02-21T00:14:41.098Z,1017.05
2018-02-21T00:15:41.119Z,1017.08
2018-02-21T00:16:41.045Z,1017.03
2018-02-21T00:17:41.174Z,1017.05
2018-02-21T00:18:40.999Z,1017.06
2018-02-21T00:19:40.980Z,1017.08
2018-02-21T00:20:40.959Z,1017.11
2018-02-21T00:21:41.019Z,1017.13
2018-02-21T00:22:40.907Z,1017.14
2018-02-21T00:23:40.932Z,1017.21
2018-02-21T00:24:40.865Z,1017.20
2018-02-21T00:25:40.839Z,1017.23
2018-02-21T00:26:40.811Z,1017.22
2018-02-21T00:27:40.801Z,1017.22
2018-02-21T00:28:40.762Z,1017.19
2018-02-21T00:29:40.749Z,1017.18
2018-02-21T00:30:40.717Z,1017.16
2018-02-21T00:31:40.694Z,1017.11
2018-02-21T00:32:40.669Z,1017.11
2018-02-21T00:33:40.650Z,1017.08
2018-02-21T00:34:40.621Z,1017.04
2018-02-21T00:35:40.605Z,1017.05
2018-02-21T00:36:40.579Z,1017.04
2018-02-21T00:37:40.550Z,1017.05
2018-02-21T00:38:40.526Z,1017.05
2018-02-21T00:39:40.505Z,1017.03
2018-02-21T00:40:40.479Z,1017.01
2018-02-21T00:41:40.462Z,1017.05
2018-02-21T00:42:40.446Z,1017.10
2018-02-21T00:43:40.414Z,1017.08
2018-02-21T00:44:40.386Z,1017.13
2018-02-21T00:45:40.370Z,1017.13
2018-02-21T00:46:40.338Z,1017.16
2018-02-21T00:47:40.315Z,1017.20
2018-02-21T00:48:40.300Z,1017.19
2018-02-21T00:49:40.272Z,1017.21
2018-02-21T00:50:40.259Z,1017.24
2018-02-21T00:51:40.221Z,1017.27
2018-02-21T00:52:40.210Z,1017.25
2018-02-21T00:53:40.176Z,1017.24
2018-02-21T00:54:40.152Z,1017.25
2018-02-21T00:55:40.125Z,1017.24
2018-02-21T00:56:40.104Z,1017.24
2018-02-21T00:57:40.080Z,1017.19
2018-02-21T00:58:40.054Z,1017.22
2018-02-21T00:59:40.036Z,1017.18
2018-02-21T01:00:40.010Z,1017.14
2018-02-21T01:01:39.989Z,1017.14
2018-02-21T01:02:39.962Z,1017.13
2018-02-21T01:03:39.937Z,1017.16
2018-02-21T01:04:39.915Z,1017.17
2018-02-21T01:05:39.889Z,1017.15
2018-02-21T01:06:39.870Z,1017.18
2018-02-21T01:07:39.844Z,1017.19
2018-02-21T01:08:39.820Z,1017.20
2018-02-21T01:09:39.797Z,1017.25
2018-02-21T01:10:39.781Z,1017.19
2018-02-21T01:11:39.748Z,1017.20
2018-02-21T01:12:39.726Z,1017.20
2018-02-21T01:13:39.702Z,1017.22
2018-02-21T01:14:39.681Z,1017.22
2018-02-21T01:15:39.661Z,1017.21
2018-02-21T01:16:39.642Z,1017.18
2018-02-21T01:17:39.614Z,1017.18
2018-02-21T01:18:39.590Z,1017.14
2018-02-21T01:19:39.560Z,1017.12
2018-02-21T01:20:39.540Z,1017.10
2018-02-21T01:21:39.515Z,1017.07
2018-02-21T01:22:39.489Z,1017.08
2018-02-21T01:23:39.469Z,1017.05
2018-02-21T01:24:39.443Z,1017.05
2018-02-21T01:25:39.420Z,1017.01
2018-02-21T01:26:39.400Z,1017.04
2018-02-21T01:27:39.380Z,1017.00
2018-02-21T01:28:39.347Z,1017.01
2018-02-21T01:29:39.324Z,1016.99
2018-02-21T01:30:39.303Z,1016.97
2018-02-21T01:31:39.280Z,1016.99
2018-02-21T01:32:39.259Z,1017.01
2018-02-21T01:33:39.230Z,1017.02
2018-02-21T01:34:39.210Z,1017.00
2018-02-21T01:35:39.186Z,1017.00
2018-02-21T01:36:39.209Z,1016.98
2018-02-21T01:37:39.136Z,1017.01
2018-02-21T01:38:39.118Z,1016.99
2018-02-21T01:39:39.090Z,1016.94
2018-02-21T01:40:39.069Z,1016.92
2018-02-21T01:41:39.040Z,1016.96
2018-02-21T01:42:39.074Z,1016.89
2018-02-21T01:43:38.994Z,1016.84
2018-02-21T01:44:38.969Z,1016.87
2018-02-21T01:45:38.948Z,1016.90
2018-02-21T01:46:38.923Z,1016.89
2018-02-21T01:47:38.899Z,1016.96
2018-02-21T01:48:38.880Z,1016.96
2018-02-21T01:49:38.853Z,1017.06
2018-02-21T01:50:38.837Z,1017.12
2018-02-21T01:51:38.806Z,1017.14
2018-02-21T01:52:38.829Z,1017.16
2018-02-21T01:53:38.756Z,1017.21
2018-02-21T01:54:38.788Z,1017.24
2018-02-21T01:55:38.709Z,1017.17
2018-02-21T01:56:38.739Z,1017.19
2018-02-21T01:57:38.660Z,1017.18
2018-02-21T01:58:38.640Z,1017.16
2018-02-21T01:59:38.614Z,1017.11
2018-02-21T02:00:38.589Z,1017.07
2018-02-21T02:01:38.569Z,1017.06
2018-02-21T02:02:38.554Z,1017.04
2018-02-21T02:03:38.520Z,1017.07
2018-02-21T02:04:38.505Z,1017.04
2018-02-21T02:05:38.472Z,1017.06
2018-02-21T02:06:38.451Z,1017.04
2018-02-21T02:07:38.424Z,1017.07
2018-02-21T02:08:38.399Z,1017.05
2018-02-21T02:09:38.378Z,1017.08
2018-02-21T02:10:38.362Z,1017.06
2018-02-21T02:11:38.330Z,1017.07
2018-02-21T02:12:38.314Z,1017.12
2018-02-21T02:13:38.282Z,1017.13
2018-02-21T02:14:38.263Z,1017.13
2018-02-21T02:15:38.240Z,1017.11
2018-02-21T02:16:38.219Z,1017.11
2018-02-21T02:17:38.188Z,1017.12
2018-02-21T02:18:38.166Z,1017.12
2018-02-21T02:19:38.140Z,1017.11
2018-02-21T02:20:38.121Z,1017.14
2018-02-21T02:21:38.089Z,1017.15
2018-02-21T02:22:38.072Z,1017.18
2018-02-21T02:23:38.048Z,1017.17
2018-02-21T02:24:38.020Z,1017.19
2018-02-21T02:25:38.010Z,1017.24
2018-02-21T02:26:37.975Z,1017.26
2018-02-21T02:27:37.949Z,1017.26
2018-02-21T02:28:37.925Z,1017.28
2018-02-21T02:29:37.900Z,1017.33
2018-02-21T02:30:37.877Z,1017.33
2018-02-21T02:31:37.851Z,1017.32
2018-02-21T02:32:37.832Z,1017.29
2018-02-21T02:33:37.809Z,1017.34
2018-02-21T02:34:37.781Z,1017.32
2018-02-21T02:35:37.761Z,1017.32
2018-02-21T02:36:37.742Z,1017.32
2018-02-21T02:37:37.711Z,1017.34
2018-02-21T02:38:37.692Z,1017.38
2018-02-21T02:39:37.667Z,1017.39
2018-02-21T02:40:37.639Z,1017.45
2018-02-21T02:41:37.612Z,1017.46
2018-02-21T02:42:37.590Z,1017.49
2018-02-21T02:43:37.565Z,1017.54
2018-02-21T02:44:37.548Z,1017.57
2018-02-21T02:45:37.523Z,1017.59
2018-02-21T02:46:37.503Z,1017.66
2018-02-21T02:47:37.471Z,1017.70
2018-02-21T02:48:37.448Z,1017.72
2018-02-21T02:49:37.430Z,1017.79
2018-02-21T02:50:37.399Z,1017.83
2018-02-21T02:51:37.378Z,1017.81
2018-02-21T02:52:37.361Z,1017.83
2018-02-21T02:53:37.329Z,1017.75
2018-02-21T02:54:37.310Z,1017.77
2018-02-21T02:55:37.282Z,1017.72
2018-02-21T02:56:37.260Z,1017.71
2018-02-21T02:57:37.238Z,1017.70
2018-02-21T02:58:37.208Z,1017.68
2018-02-21T02:59:37.183Z,1017.66
2018-02-21T03:00:37.162Z,1017.67
2018-02-21T03:01:37.138Z,1017.66
2018-02-21T03:02:37.115Z,1017.66
2018-02-21T03:03:37.096Z,1017.68
2018-02-21T03:04:37.066Z,1017.71
2018-02-21T03:05:37.040Z,1017.73
2018-02-21T03:06:37.017Z,1017.75
2018-02-21T03:07:36.996Z,1017.80
2018-02-21T03:08:36.967Z,1017.77
2018-02-21T03:09:36.947Z,1017.82
2018-02-21T03:10:36.922Z,1017.80
2018-02-21T03:11:36.897Z,1017.79
2018-02-21T03:12:36.875Z,1017.80
2018-02-21T03:13:36.853Z,1017.79
2018-02-21T03:14:36.828Z,1017.77
2018-02-21T03:15:36.798Z,1017.79
2018-02-21T03:16:36.778Z,1017.80
2018-02-21T03:17:36.756Z,1017.78
2018-02-21T03:18:36.731Z,1017.80
2018-02-21T03:19:36.716Z,1017.80
2018-02-21T03:20:36.679Z,1017.80
2018-02-21T03:21:36.658Z,1017.79
2018-02-21T03:22:36.690Z,1017.83
2018-02-21T03:23:36.606Z,1017.81
2018-02-21T03:24:36.582Z,1017.87
2018-02-21T03:25:36.560Z,1017.84
2018-02-21T03:26:36.535Z,1017.85
2018-02-21T03:27:36.510Z,1017.88
2018-02-21T03:28:36.487Z,1017.82
2018-02-21T03:29:36.466Z,1017.80
2018-02-21T03:30:36.443Z,1017.83
2018-02-21T03:31:36.419Z,1017.76
2018-02-21T03:32:36.392Z,1017.77
2018-02-21T03:33:36.368Z,1017.71
2018-02-21T03:34:36.383Z,1017.69
2018-02-21T03:35:36.319Z,1017.71
2018-02-21T03:36:36.296Z,1017.70
2018-02-21T03:37:36.269Z,1017.71
2018-02-21T03:38:36.247Z,1017.74
2018-02-21T03:39:36.226Z,1017.69
2018-02-21T03:40:36.198Z,1017.72
2018-02-21T03:41:36.179Z,1017.75
2018-02-21T03:42:36.152Z,1017.73
2018-02-21T03:43:36.176Z,1017.75
2018-02-21T03:44:36.107Z,1017.76
2018-02-21T03:45:36.085Z,1017.79
2018-02-21T03:46:36.054Z,1017.78
2018-02-21T03:47:36.086Z,1017.77
2018-02-21T03:48:36.011Z,1017.78
2018-02-21T03:49:36.084Z,1017.80
2018-02-21T03:50:35.960Z,1017.80
2018-02-21T03:51:35.935Z,1017.82
2018-02-21T03:52:35.910Z,1017.75
2018-02-21T03:53:35.890Z,1017.78
2018-02-21T03:54:35.859Z,1017.77
2018-02-21T03:55:35.858Z,1017.83
2018-02-21T03:56:35.817Z,1017.80
2018-02-21T03:57:35.789Z,1017.87
2018-02-21T03:58:35.762Z,1017.89
2018-02-21T03:59:35.743Z,1017.90
2018-02-21T04:00:35.723Z,1017.93
2018-02-21T04:01:35.721Z,1017.90
2018-02-21T04:02:35.668Z,1017.87
2018-02-21T04:03:35.645Z,1017.86
2018-02-21T04:04:35.618Z,1017.86
2018-02-21T04:05:35.598Z,1017.87
2018-02-21T04:06:35.571Z,1017.88
2018-02-21T04:07:35.552Z,1017.91
2018-02-21T04:08:35.520Z,1017.92
2018-02-21T04:09:35.497Z,1017.97
2018-02-21T04:10:35.480Z,1017.94
2018-02-21T04:11:35.449Z,1017.90
2018-02-21T04:12:35.425Z,1017.88
2018-02-21T04:13:35.404Z,1017.90
2018-02-21T04:14:35.379Z,1017.85
2018-02-21T04:15:35.351Z,1017.91
2018-02-21T04:16:35.329Z,1017.87
2018-02-21T04:17:35.310Z,1017.89
2018-02-21T04:18:35.280Z,1017.87
2018-02-21T04:19:35.258Z,1017.90
2018-02-21T04:20:35.228Z,1017.86
2018-02-21T04:21:35.205Z,1017.88
2018-02-21T04:22:35.180Z,1017.87
2018-02-21T04:23:35.158Z,1017.87
2018-02-21T04:24:35.193Z,1017.92
2018-02-21T04:25:35.113Z,1017.87
2018-02-21T04:26:35.089Z,1017.90
2018-02-21T04:27:35.068Z,1017.96
2018-02-21T04:28:35.036Z,1017.95
2018-02-21T04:29:35.013Z,1017.91
2018-02-21T04:30:34.988Z,1017.93
2018-02-21T04:31:34.968Z,1017.90
2018-02-21T04:32:34.939Z,1017.88
2018-02-21T04:33:34.918Z,1017.87
2018-02-21T04:34:34.894Z,1017.90
2018-02-21T04:35:34.869Z,1017.88
2018-02-21T04:36:34.848Z,1017.87
2018-02-21T04:37:34.825Z,1017.83
2018-02-21T04:38:34.795Z,1017.83
2018-02-21T04:39:34.772Z,1017.80
2018-02-21T04:40:34.749Z,1017.81
2018-02-21T04:41:34.724Z,1017.82
2018-02-21T04:42:34.698Z,1017.80
2018-02-21T04:43:34.715Z,1017.79
2018-02-21T04:44:34.659Z,1017.80
2018-02-21T04:45:34.630Z,1017.79
2018-02-21T04:46:34.608Z,1017.77
2018-02-21T04:47:34.590Z,1017.76
2018-02-21T04:48:34.556Z,1017.79
2018-02-21T04:49:34.528Z,1017.74
2018-02-21T04:50:34.514Z,1017.71
2018-02-21T04:51:34.482Z,1017.68
2018-02-21T04:52:34.456Z,1017.67
2018-02-21T04:53:34.441Z,1017.69
2018-02-21T04:54:34.409Z,1017.70
2018-02-21T04:55:34.384Z,1017.72
2018-02-21T04:56:34.358Z,1017.68
2018-02-21T04:57:34.336Z,1017.75
2018-02-21T04:58:34.321Z,1017.75
2018-02-21T04:59:34.290Z,1017.81
2018-02-21T05:00:34.317Z,1017.83
2018-02-21T05:01:34.240Z,1017.79
2018-02-21T05:02:34.232Z,1017.79
2018-02-21T05:03:34.194Z,1017.79
2018-02-21T05:04:34.218Z,1017.75
2018-02-21T05:05:34.145Z,1017.71
2018-02-21T05:06:34.219Z,1017.71
2018-02-21T05:07:34.094Z,1017.70
2018-02-21T05:08:34.119Z,1017.71
2018-02-21T05:09:34.049Z,1017.73
2018-02-21T05:10:34.130Z,1017.72
2018-02-21T05:11:33.998Z,1017.71
2018-02-21T05:12:33.974Z,1017.69
2018-02-21T05:13:33.954Z,1017.69
2018-02-21T05:14:34.009Z,1017.72
2018-02-21T05:15:33.900Z,1017.69
2018-02-21T05:16:34.050Z,1017.72
2018-02-21T05:17:33.858Z,1017.75
2018-02-21T05:18:33.866Z,1017.72
2018-02-21T05:19:33.810Z,1017.76
2018-02-21T05:20:33.854Z,1017.78
2018-02-21T05:21:33.760Z,1017.79
2018-02-21T05:22:33.830Z,1017.75
2018-02-21T05:23:33.706Z,1017.78
2018-02-21T05:24:33.701Z,1017.76
2018-02-21T05:25:33.658Z,1017.74
2018-02-21T05:26:33.642Z,1017.72
2018-02-21T05:27:33.610Z,1017.76
2018-02-21T05:28:33.585Z,1017.67
2018-02-21T05:29:33.562Z,1017.68
2018-02-21T05:30:33.541Z,1017.66
2018-02-21T05:31:33.510Z,1017.72
2018-02-21T05:32:33.510Z,1017.75
2018-02-21T05:33:33.466Z,1017.76
2018-02-21T05:34:33.452Z,1017.76
2018-02-21T05:35:33.421Z,1017.77
2018-02-21T05:36:33.407Z,1017.77
2018-02-21T05:37:33.389Z,1017.76
2018-02-21T05:38:33.344Z,1017.78
2018-02-21T05:39:33.319Z,1017.81
2018-02-21T05:40:33.293Z,1017.79
2018-02-21T05:41:33.270Z,1017.82
2018-02-21T05:42:33.245Z,1017.86
2018-02-21T05:43:33.219Z,1017.92
2018-02-21T05:44:33.198Z,1017.93
2018-02-21T05:45:33.172Z,1017.97
2018-02-21T05:46:33.150Z,1018.01
2018-02-21T05:47:33.122Z,1018.05
2018-02-21T05:48:33.101Z,1018.07
2018-02-21T05:49:33.084Z,1018.10
2018-02-21T05:50:33.056Z,1018.06
2018-02-21T05:51:33.026Z,1018.13
2018-02-21T05:52:33.002Z,1018.13
2018-02-21T05:53:32.984Z,1018.15
2018-02-21T05:54:32.962Z,1018.16
2018-02-21T05:55:32.926Z,1018.13
2018-02-21T05:56:32.907Z,1018.15
2018-02-21T05:57:32.879Z,1018.22
2018-02-21T05:58:32.860Z,1018.20
2018-02-21T05:59:32.830Z,1018.21
2018-02-21T06:00:32.817Z,1018.17
2018-02-21T06:01:32.781Z,1018.16
2018-02-21T06:02:32.762Z,1018.18
2018-02-21T06:03:32.739Z,1018.13
2018-02-21T06:04:32.710Z,1018.14
2018-02-21T06:05:32.690Z,1018.13
2018-02-21T06:06:32.661Z,1018.16
2018-02-21T06:07:32.641Z,1018.24
2018-02-21T06:08:32.610Z,1018.28
2018-02-21T06:09:32.591Z,1018.33
2018-02-21T06:10:32.580Z,1018.35
2018-02-21T06:11:32.540Z,1018.40
2018-02-21T06:12:32.519Z,1018.39
2018-02-21T06:13:32.488Z,1018.43
2018-02-21T06:14:32.481Z,1018.43
2018-02-21T06:15:32.442Z,1018.41
2018-02-21T06:16:32.425Z,1018.40
2018-02-21T06:17:32.390Z,1018.44
2018-02-21T06:18:32.376Z,1018.43
2018-02-21T06:19:32.340Z,1018.43
2018-02-21T06:20:32.316Z,1018.47
2018-02-21T06:21:32.292Z,1018.47
2018-02-21T06:22:32.269Z,1018.49
2018-02-21T06:23:32.295Z,1018.55
2018-02-21T06:24:32.219Z,1018.56
2018-02-21T06:25:32.200Z,1018.59
2018-02-21T06:26:32.171Z,1018.58
2018-02-21T06:27:32.149Z,1018.59
2018-02-21T06:28:32.123Z,1018.59
2018-02-21T06:29:32.098Z,1018.62
2018-02-21T06:30:32.076Z,1018.65
2018-02-21T06:31:32.051Z,1018.63
2018-02-21T06:32:32.021Z,1018.67
2018-02-21T06:33:32.000Z,1018.67
2018-02-21T06:34:31.976Z,1018.71
2018-02-21T06:35:31.948Z,1018.64
2018-02-21T06:36:31.924Z,1018.68
2018-02-21T06:37:31.907Z,1018.66
2018-02-21T06:38:31.923Z,1018.65
2018-02-21T06:39:31.851Z,1018.61
2018-02-21T06:40:31.832Z,1018.57
2018-02-21T06:41:31.806Z,1018.51
2018-02-21T06:42:31.779Z,1018.53
2018-02-21T06:43:31.749Z,1018.48
2018-02-21T06:44:31.730Z,1018.48
2018-02-21T06:45:31.702Z,1018.49
2018-02-21T06:46:31.678Z,1018.45
2018-02-21T06:47:31.657Z,1018.43
2018-02-21T06:48:31.630Z,1018.41
2018-02-21T06:49:31.607Z,1018.41
2018-02-21T06:50:31.581Z,1018.43
2018-02-21T06:51:31.566Z,1018.40
2018-02-21T06:52:31.537Z,1018.36
2018-02-21T06:53:31.506Z,1018.37
2018-02-21T06:54:31.481Z,1018.37
2018-02-21T06:55:31.466Z,1018.36
2018-02-21T06:56:31.435Z,1018.34
2018-02-21T06:57:31.410Z,1018.31
2018-02-21T06:58:31.387Z,1018.34
2018-02-21T06:59:31.363Z,1018.35
2018-02-21T07:00:31.346Z,1018.35
2018-02-21T07:01:31.317Z,1018.42
2018-02-21T07:02:31.291Z,1018.50
2018-02-21T07:03:31.267Z,1018.52
2018-02-21T07:04:31.244Z,1018.50
2018-02-21T07:05:31.221Z,1018.53
2018-02-21T07:06:31.200Z,1018.57
2018-02-21T07:07:31.171Z,1018.54
2018-02-21T07:08:31.153Z,1018.60
2018-02-21T07:09:31.133Z,1018.61
2018-02-21T07:10:31.114Z,1018.61
2018-02-21T07:11:31.081Z,1018.64
2018-02-21T07:12:31.057Z,1018.65
2018-02-21T07:13:31.034Z,1018.71
2018-02-21T07:14:31.021Z,1018.72
2018-02-21T07:15:31.068Z,1018.74
2018-02-21T07:16:30.970Z,1018.77
2018-02-21T07:17:30.953Z,1018.74
2018-02-21T07:18:30.928Z,1018.80
2018-02-21T07:19:30.904Z,1018.81
2018-02-21T07:20:30.889Z,1018.80
2018-02-21T07:21:30.864Z,1018.78
2018-02-21T07:22:30.849Z,1018.78
2018-02-21T07:23:30.826Z,1018.80
2018-02-21T07:24:30.806Z,1018.78
2018-02-21T07:25:30.789Z,1018.81
2018-02-21T07:26:30.770Z,1018.84
2018-02-21T07:27:30.748Z,1018.80
2018-02-21T07:28:30.736Z,1018.82
2018-02-21T07:29:30.710Z,1018.88
2018-02-21T07:30:30.692Z,1018.88
2018-02-21T07:31:30.671Z,1018.90
2018-02-21T07:32:30.664Z,1018.89
2018-02-21T07:33:30.639Z,1018.86
2018-02-21T07:34:30.620Z,1018.88
2018-02-21T07:35:30.602Z,1018.93
2018-02-21T07:36:30.582Z,1018.94
2018-02-21T07:37:30.574Z,1018.99
2018-02-21T07:38:30.553Z,1019.01
2018-02-21T07:39:30.531Z,1019.00
2018-02-21T07:40:30.519Z,1019.01
2018-02-21T07:41:30.497Z,1019.00
2018-02-21T07:42:30.485Z,1019.01
2018-02-21T07:43:30.463Z,1019.04
2018-02-21T07:44:30.452Z,1019.04
2018-02-21T07:45:30.438Z,1019.00
2018-02-21T07:46:30.420Z,1019.07
2018-02-21T07:47:30.410Z,1019.10
2018-02-21T07:48:30.398Z,1019.11
2018-02-21T07:49:30.413Z,1019.09
2018-02-21T07:50:30.360Z,1019.13
2018-02-21T07:51:30.360Z,1019.10
2018-02-21T07:52:30.340Z,1019.07
2018-02-21T07:53:30.329Z,1019.06
2018-02-21T07:54:30.312Z,1019.11
2018-02-21T07:55:30.297Z,1019.10
2018-02-21T07:56:30.287Z,1019.16
2018-02-21T07:57:30.279Z,1019.16
2018-02-21T07:58:30.259Z,1019.16
2018-02-21T07:59:30.345Z,1019.16
2018-02-21T08:00:30.254Z,1019.17
2018-02-21T08:01:30.227Z,1019.23
2018-02-21T08:02:30.212Z,1019.23
2018-02-21T08:03:30.197Z,1019.25
2018-02-21T08:04:30.195Z,1019.31
2018-02-21T08:05:30.172Z,1019.35
2018-02-21T08:06:30.192Z,1019.37
2018-02-21T08:07:30.158Z,1019.40
2018-02-21T08:08:30.145Z,1019.44
2018-02-21T08:09:30.132Z,1019.46
2018-02-21T08:10:30.128Z,1019.48
2018-02-21T08:11:30.109Z,1019.48
2018-02-21T08:12:30.108Z,1019.53
2018-02-21T08:13:30.101Z,1019.51
2018-02-21T08:14:30.082Z,1019.57
2018-02-21T08:15:30.074Z,1019.57
2018-02-21T08:16:30.062Z,1019.59
2018-02-21T08:17:30.059Z,1019.64
2018-02-21T08:18:30.049Z,1019.70
2018-02-21T08:19:30.037Z,1019.72
2018-02-21T08:20:30.035Z,1019.76
2018-02-21T08:21:30.014Z,1019.78
2018-02-21T08:22:30.010Z,1019.80
2018-02-21T08:23:30.010Z,1019.82
2018-02-21T08:24:29.995Z,1019.83
2018-02-21T08:25:29.983Z,1019.84
2018-02-21T08:26:29.996Z,1019.87
2018-02-21T08:27:29.965Z,1019.92
2018-02-21T08:28:29.956Z,1019.92
2018-02-21T08:29:29.952Z,1019.86
2018-02-21T08:30:29.947Z,1019.92
2018-02-21T08:31:29.939Z,1019.92
2018-02-21T08:32:29.926Z,1019.93
2018-02-21T08:33:29.919Z,1019.96
2018-02-21T08:34:29.908Z,1019.95
2018-02-21T08:35:29.911Z,1019.95
2018-02-21T08:36:29.893Z,1019.97
2018-02-21T08:37:29.887Z,1019.95
2018-02-21T08:38:29.882Z,1019.95
2018-02-21T08:39:29.869Z,1019.95
2018-02-21T08:40:29.861Z,1020.02
2018-02-21T08:41:29.853Z,1020.07
2018-02-21T08:42:29.850Z,1020.08
2018-02-21T08:43:29.837Z,1020.02
2018-02-21T08:44:29.831Z,1020.13
2018-02-21T08:45:29.825Z,1020.29
2018-02-21T08:46:29.817Z,1020.22
2018-02-21T08:47:29.823Z,1020.03
2018-02-21T08:48:29.804Z,1020.02
2018-02-21T08:49:29.794Z,1020.00
2018-02-21T08:50:29.791Z,1020.01
2018-02-21T08:51:29.792Z,1020.03
2018-02-21T08:52:29.778Z,1020.03
2018-02-21T08:53:29.770Z,1020.02
2018-02-21T08:54:29.759Z,1020.01
2018-02-21T08:55:29.755Z,1020.10
2018-02-21T08:56:29.748Z,1020.22
2018-02-21T08:57:29.742Z,1020.30
2018-02-21T08:58:29.735Z,1020.34
2018-02-21T08:59:29.725Z,1020.19
2018-02-21T09:00:29.721Z,1020.16
2018-02-21T09:01:29.719Z,1020.10
2018-02-21T09:02:29.709Z,1020.08
2018-02-21T09:03:29.699Z,1020.10
2018-02-21T09:04:29.700Z,1020.08
2018-02-21T09:05:29.688Z,1020.11
2018-02-21T09:06:29.738Z,1020.14
2018-02-21T09:07:29.678Z,1020.17
2018-02-21T09:08:29.682Z,1020.08
2018-02-21T09:09:29.673Z,1020.08
2018-02-21T09:10:29.692Z,1020.04
2018-02-21T09:11:29.649Z,1020.13
2018-02-21T09:12:29.643Z,1020.08
2018-02-21T09:13:29.638Z,1020.06
2018-02-21T09:14:29.638Z,1020.07
2018-02-21T09:15:29.625Z,1020.08
2018-02-21T09:16:29.624Z,1020.06
2018-02-21T09:17:29.614Z,1020.09
2018-02-21T09:18:29.610Z,1020.15
2018-02-21T09:19:29.599Z,1020.19
2018-02-21T09:20:29.600Z,1020.22
2018-02-21T09:21:29.591Z,1020.16
2018-02-21T09:22:29.590Z,1020.22
2018-02-21T09:23:29.582Z,1020.25
2018-02-21T09:24:29.569Z,1020.23
2018-02-21T09:25:29.577Z,1020.25
2018-02-21T09:26:29.557Z,1020.32
2018-02-21T09:27:29.557Z,1020.32
2018-02-21T09:28:29.550Z,1020.33
2018-02-21T09:29:29.596Z,1020.33
2018-02-21T09:30:29.539Z,1020.36
2018-02-21T09:31:29.575Z,1020.44
2018-02-21T09:32:29.517Z,1020.43
2018-02-21T09:33:29.547Z,1020.46
2018-02-21T09:34:29.515Z,1020.49
2018-02-21T09:35:29.509Z,1020.56
2018-02-21T09:36:29.494Z,1020.63
2018-02-21T09:37:29.489Z,1020.74
2018-02-21T09:38:29.493Z,1020.78
2018-02-21T09:39:29.477Z,1020.84
2018-02-21T09:40:29.478Z,1020.86
2018-02-21T09:41:29.464Z,1020.97
2018-02-21T09:42:29.458Z,1021.13
2018-02-21T09:43:29.457Z,1021.41
2018-02-21T09:44:29.451Z,1021.31
2018-02-21T09:45:29.441Z,1021.03
2018-02-21T09:46:29.433Z,1020.89
2018-02-21T09:47:29.429Z,1020.84
2018-02-21T09:48:29.426Z,1020.73
2018-02-21T09:49:29.420Z,1020.77
2018-02-21T09:50:29.417Z,1020.81
2018-02-21T09:51:29.404Z,1020.87
2018-02-21T09:52:29.407Z,1021.37
2018-02-21T09:53:29.394Z,1021.73
2018-02-21T09:54:29.386Z,1020.91
2018-02-21T09:55:29.379Z,1020.47
2018-02-21T09:56:29.377Z,1020.46
2018-02-21T09:57:29.369Z,1020.54
2018-02-21T09:58:29.373Z,1020.57
2018-02-21T09:59:29.356Z,1020.51
2018-02-21T10:00:29.345Z,1020.51
2018-02-21T10:01:29.342Z,1020.58
2018-02-21T10:02:29.342Z,1020.65
2018-02-21T10:03:29.329Z,1020.73
2018-02-21T10:04:29.319Z,1020.84
2018-02-21T10:05:29.315Z,1020.82
2018-02-21T10:06:29.303Z,1020.91
2018-02-21T10:07:29.295Z,1020.95
2018-02-21T10:08:29.450Z,1020.95
2018-02-21T10:09:29.283Z,1020.89
2018-02-21T10:10:29.277Z,1020.87
2018-02-21T10:11:29.259Z,1020.87
2018-02-21T10:12:29.258Z,1020.88
2018-02-21T10:13:29.246Z,1020.88
2018-02-21T10:14:29.240Z,1020.92
2018-02-21T10:15:29.231Z,1020.89
2018-02-21T10:16:29.280Z,1020.82
2018-02-21T10:17:29.212Z,1020.83
2018-02-21T10:18:29.210Z,1020.87
2018-02-21T10:19:29.198Z,1020.84
2018-02-21T10:20:29.188Z,1020.85
2018-02-21T10:21:29.187Z,1020.82
2018-02-21T10:22:29.182Z,1020.79
2018-02-21T10:23:29.169Z,1020.77
2018-02-21T10:24:29.154Z,1020.80
2018-02-21T10:25:29.150Z,1020.80
2018-02-21T10:26:29.150Z,1020.76
2018-02-21T10:27:29.130Z,1020.76
2018-02-21T10:28:29.119Z,1020.67
2018-02-21T10:29:29.118Z,1020.67
2018-02-21T10:30:29.103Z,1020.67
2018-02-21T10:31:29.107Z,1020.62
2018-02-21T10:32:29.091Z,1020.42
2018-02-21T10:33:29.078Z,1020.10
2018-02-21T10:34:29.069Z,1019.84
2018-02-21T10:35:29.056Z,1019.73
2018-02-21T10:36:29.049Z,1019.70
2018-02-21T10:37:29.039Z,1019.70
2018-02-21T10:38:29.061Z,1019.70
2018-02-21T10:39:29.063Z,1019.69
2018-02-21T10:40:29.018Z,1019.73
2018-02-21T10:41:29.003Z,1019.66
2018-02-21T10:42:29.000Z,1019.68
2018-02-21T10:43:28.988Z,1019.66
2018-02-21T10:44:28.981Z,1019.67
2018-02-21T10:45:28.968Z,1019.66
2018-02-21T10:46:28.959Z,1019.61
2018-02-21T10:47:28.948Z,1019.65
2018-02-21T10:48:28.949Z,1019.60
2018-02-21T10:49:28.931Z,1019.56
2018-02-21T10:50:28.936Z,1019.57
2018-02-21T10:51:28.914Z,1019.52
2018-02-21T10:52:28.913Z,1019.54
2018-02-21T10:53:28.895Z,1019.46
2018-02-21T10:54:28.880Z,1019.47
2018-02-21T10:55:28.875Z,1019.47
2018-02-21T10:56:28.862Z,1019.45
2018-02-21T10:57:28.848Z,1019.42
2018-02-21T10:58:28.840Z,1019.44
2018-02-21T10:59:28.833Z,1019.38
2018-02-21T11:00:28.817Z,1019.37
2018-02-21T11:01:28.815Z,1019.34
2018-02-21T11:02:28.798Z,1019.34
2018-02-21T11:03:28.785Z,1019.32
2018-02-21T11:04:28.780Z,1019.35
2018-02-21T11:05:28.781Z,1019.31
2018-02-21T11:06:28.757Z,1019.33
2018-02-21T11:07:28.740Z,1019.32
2018-02-21T11:08:28.737Z,1019.35
2018-02-21T11:09:28.719Z,1019.35
2018-02-21T11:10:28.712Z,1019.33
2018-02-21T11:11:28.706Z,1019.27
2018-02-21T11:12:28.695Z,1019.26
2018-02-21T11:13:28.692Z,1019.28
2018-02-21T11:14:28.674Z,1019.33
2018-02-21T11:15:28.664Z,1019.36
2018-02-21T11:16:28.660Z,1019.35
2018-02-21T11:17:28.637Z,1019.36
2018-02-21T11:18:28.627Z,1019.33
2018-02-21T11:19:28.610Z,1019.34
2018-02-21T11:20:28.602Z,1019.30
2018-02-21T11:21:28.593Z,1019.29
2018-02-21T11:22:28.581Z,1019.32
2018-02-21T11:23:28.583Z,1019.30
2018-02-21T11:24:28.557Z,1019.29
2018-02-21T11:25:28.545Z,1019.24
2018-02-21T11:26:28.534Z,1019.29
2018-02-21T11:27:28.519Z,1019.26
2018-02-21T11:28:28.508Z,1019.26
2018-02-21T11:29:28.506Z,1019.27
2018-02-21T11:30:28.489Z,1019.26
2018-02-21T11:31:28.475Z,1019.29
2018-02-21T11:32:28.469Z,1019.26
2018-02-21T11:33:28.457Z,1019.32
2018-02-21T11:34:28.445Z,1019.30
2018-02-21T11:35:28.431Z,1019.27
2018-02-21T11:36:28.431Z,1019.27
2018-02-21T11:37:28.408Z,1019.24
2018-02-21T11:38:28.399Z,1019.27
2018-02-21T11:39:28.390Z,1019.26
2018-02-21T11:40:28.374Z,1019.25
2018-02-21T11:41:28.371Z,1019.24
2018-02-21T11:42:28.359Z,1019.25
2018-02-21T11:43:28.340Z,1019.25
2018-02-21T11:44:28.330Z,1019.25
2018-02-21T11:45:28.319Z,1019.21
2018-02-21T11:46:28.310Z,1019.22
2018-02-21T11:47:28.298Z,1019.24
2018-02-21T11:48:28.284Z,1019.22
2018-02-21T11:49:28.272Z,1019.22
2018-02-21T11:50:28.404Z,1019.23
2018-02-21T11:51:28.249Z,1019.21
2018-02-21T11:52:28.243Z,1019.16
2018-02-21T11:53:28.222Z,1019.19
2018-02-21T11:54:28.219Z,1019.21
2018-02-21T11:55:28.195Z,1019.19
2018-02-21T11:56:28.187Z,1019.16
2018-02-21T11:57:28.177Z,1019.16
2018-02-21T11:58:28.220Z,1019.16
2018-02-21T11:59:28.151Z,1019.17
2018-02-21T12:00:28.243Z,1019.11
2018-02-21T12:01:28.123Z,1019.09
2018-02-21T12:02:28.119Z,1019.07
2018-02-21T12:03:28.097Z,1019.04
2018-02-21T12:04:28.152Z,1019.06
2018-02-21T12:05:28.079Z,1019.05